Terminal Aerodrome Forecast
Issued by NWS Duluth, MN

Home | Current Version | Previous Version | Text Only | Print | Product List | Glossary On
Versions: 1 2 3 4 5 6 7 8 9 10 11 12 13 14 15 16 17 18 19 20 21 22 23
000
FTUS43 KDLH 212300 RRA
TAFDLH
TAF
KDLH 212347Z 2200/2224 16007KT P6SM SCT025
     FM220600 VRB06KT P6SM -TSRA SCT015 BKN035CB
      TEMPO 2206/2210 VRB40KT 2SM +TSRA SCT005 OVC012CB
     FM221000 VRB05KT 2SM BR VCSH OVC008
     FM221600 30010G20KT P6SM SCT007 OVC020=

USA.gov is the U.S. government's official web portal to all federal, state and local government web resources and services.